sensor_id;sensor_type;location;lat;lon;timestamp;P1;durP1;ratioP1;P2;durP2;ratioP2
68250;SDS011;55066;51.560;4.642;2023-01-26T00:01:12;76.50;;;18.27;;
68250;SDS011;55066;51.560;4.642;2023-01-26T00:03:48;84.43;;;20.63;;
68250;SDS011;55066;51.560;4.642;2023-01-26T00:06:15;61.10;;;15.67;;
68250;SDS011;55066;51.560;4.642;2023-01-26T00:08:43;89.43;;;19.63;;
68250;SDS011;55066;51.560;4.642;2023-01-26T00:11:14;87.82;;;21.67;;
68250;SDS011;55066;51.560;4.642;2023-01-26T00:13:42;80.97;;;19.10;;
68250;SDS011;55066;51.560;4.642;2023-01-26T00:16:12;85.17;;;20.87;;
68250;SDS011;55066;51.560;4.642;2023-01-26T00:18:39;87.13;;;19.67;;
68250;SDS011;55066;51.560;4.642;2023-01-26T00:21:06;80.07;;;20.95;;
68250;SDS011;55066;51.560;4.642;2023-01-26T00:23:38;68.30;;;16.98;;
68250;SDS011;55066;51.560;4.642;2023-01-26T00:26:07;79.97;;;18.63;;
68250;SDS011;55066;51.560;4.642;2023-01-26T00:28:36;81.70;;;20.17;;
68250;SDS011;55066;51.560;4.642;2023-01-26T00:31:04;87.45;;;21.20;;
68250;SDS011;55066;51.560;4.642;2023-01-26T00:33:31;92.73;;;22.13;;
68250;SDS011;55066;51.560;4.642;2023-01-26T00:35:57;86.28;;;20.52;;
68250;SDS011;55066;51.560;4.642;2023-01-26T00:38:25;75.90;;;18.00;;
68250;SDS011;55066;51.560;4.642;2023-01-26T00:40:50;84.77;;;20.47;;
68250;SDS011;55066;51.560;4.642;2023-01-26T00:43:16;69.63;;;16.60;;
68250;SDS011;55066;51.560;4.642;2023-01-26T00:45:42;88.43;;;20.73;;
68250;SDS011;55066;51.560;4.642;2023-01-26T00:48:12;93.07;;;21.35;;
68250;SDS011;55066;51.560;4.642;2023-01-26T00:50:37;88.13;;;20.87;;
68250;SDS011;55066;51.560;4.642;2023-01-26T00:53:03;81.97;;;19.95;;
68250;SDS011;55066;51.560;4.642;2023-01-26T00:55:30;97.28;;;21.63;;
68250;SDS011;55066;51.560;4.642;2023-01-26T00:57:59;81.83;;;20.30;;
68250;SDS011;55066;51.560;4.642;2023-01-26T01:00:29;69.68;;;16.55;;
68250;SDS011;55066;51.560;4.642;2023-01-26T01:02:55;61.85;;;15.07;;
68250;SDS011;55066;51.560;4.642;2023-01-26T01:05:27;92.38;;;20.60;;
68250;SDS011;55066;51.560;4.642;2023-01-26T01:07:53;92.18;;;19.95;;
68250;SDS011;55066;51.560;4.642;2023-01-26T01:10:21;87.83;;;19.97;;
68250;SDS011;55066;51.560;4.642;2023-01-26T01:12:47;82.63;;;18.83;;
68250;SDS011;55066;51.560;4.642;2023-01-26T01:15:12;81.43;;;19.30;;
68250;SDS011;55066;51.560;4.642;2023-01-26T01:17:38;77.60;;;19.50;;
68250;SDS011;55066;51.560;4.642;2023-01-26T01:20:07;78.65;;;18.77;;
68250;SDS011;55066;51.560;4.642;2023-01-26T01:22:34;78.47;;;17.97;;
68250;SDS011;55066;51.560;4.642;2023-01-26T01:25:01;80.22;;;19.35;;
68250;SDS011;55066;51.560;4.642;2023-01-26T01:27:27;81.80;;;19.48;;
68250;SDS011;55066;51.560;4.642;2023-01-26T01:29:53;80.45;;;19.42;;
68250;SDS011;55066;51.560;4.642;2023-01-26T01:32:19;86.40;;;19.90;;
68250;SDS011;55066;51.560;4.642;2023-01-26T01:34:45;85.78;;;19.67;;
68250;SDS011;55066;51.560;4.642;2023-01-26T01:37:12;74.03;;;18.80;;
68250;SDS011;55066;51.560;4.642;2023-01-26T01:39:37;87.80;;;20.03;;
68250;SDS011;55066;51.560;4.642;2023-01-26T01:42:03;79.15;;;17.02;;
68250;SDS011;55066;51.560;4.642;2023-01-26T01:44:29;71.27;;;18.57;;
68250;SDS011;55066;51.560;4.642;2023-01-26T01:46:56;77.30;;;18.88;;
68250;SDS011;55066;51.560;4.642;2023-01-26T01:52:17;79.70;;;20.00;;
68250;SDS011;55066;51.560;4.642;2023-01-26T01:54:55;75.82;;;18.30;;
68250;SDS011;55066;51.560;4.642;2023-01-26T01:57:30;73.88;;;17.60;;
68250;SDS011;55066;51.560;4.642;2023-01-26T02:00:11;76.47;;;17.80;;
68250;SDS011;55066;51.560;4.642;2023-01-26T02:02:43;71.95;;;17.67;;
68250;SDS011;55066;51.560;4.642;2023-01-26T02:05:33;60.87;;;14.70;;
68250;SDS011;55066;51.560;4.642;2023-01-26T02:08:04;74.88;;;17.98;;
68250;SDS011;55066;51.560;4.642;2023-01-26T02:10:30;79.53;;;18.77;;
68250;SDS011;55066;51.560;4.642;2023-01-26T02:12:57;81.65;;;18.80;;
68250;SDS011;55066;51.560;4.642;2023-01-26T02:15:25;85.00;;;19.65;;
68250;SDS011;55066;51.560;4.642;2023-01-26T02:17:51;81.77;;;18.30;;
68250;SDS011;55066;51.560;4.642;2023-01-26T02:20:30;70.20;;;16.55;;
68250;SDS011;55066;51.560;4.642;2023-01-26T02:28:13;80.90;;;17.88;;
68250;SDS011;55066;51.560;4.642;2023-01-26T02:30:39;78.13;;;17.20;;
68250;SDS011;55066;51.560;4.642;2023-01-26T02:33:05;74.63;;;17.00;;
68250;SDS011;55066;51.560;4.642;2023-01-26T02:35:31;75.63;;;17.67;;
68250;SDS011;55066;51.560;4.642;2023-01-26T02:37:59;70.68;;;16.33;;
68250;SDS011;55066;51.560;4.642;2023-01-26T02:43:02;68.10;;;16.47;;
68250;SDS011;55066;51.560;4.642;2023-01-26T02:45:28;74.15;;;17.77;;
68250;SDS011;55066;51.560;4.642;2023-01-26T02:47:55;74.22;;;16.92;;
68250;SDS011;55066;51.560;4.642;2023-01-26T02:50:22;71.65;;;17.08;;
68250;SDS011;55066;51.560;4.642;2023-01-26T02:52:47;77.30;;;18.23;;
68250;SDS011;55066;51.560;4.642;2023-01-26T02:55:16;72.57;;;17.00;;
68250;SDS011;55066;51.560;4.642;2023-01-26T02:57:49;73.37;;;16.80;;
68250;SDS011;55066;51.560;4.642;2023-01-26T03:00:18;74.50;;;16.63;;
68250;SDS011;55066;51.560;4.642;2023-01-26T03:02:48;66.47;;;16.55;;
68250;SDS011;55066;51.560;4.642;2023-01-26T03:05:19;69.15;;;17.27;;
68250;SDS011;55066;51.560;4.642;2023-01-26T03:07:44;75.47;;;18.20;;
68250;SDS011;55066;51.560;4.642;2023-01-26T03:10:10;75.17;;;16.60;;
68250;SDS011;55066;51.560;4.642;2023-01-26T03:12:38;78.93;;;18.50;;
68250;SDS011;55066;51.560;4.642;2023-01-26T03:15:04;82.20;;;17.85;;
68250;SDS011;55066;51.560;4.642;2023-01-26T03:17:50;74.78;;;18.48;;
68250;SDS011;55066;51.560;4.642;2023-01-26T03:20:15;76.70;;;16.77;;
68250;SDS011;55066;51.560;4.642;2023-01-26T03:22:59;69.93;;;15.90;;
68250;SDS011;55066;51.560;4.642;2023-01-26T03:25:44;75.40;;;17.70;;
68250;SDS011;55066;51.560;4.642;2023-01-26T03:28:47;68.05;;;15.95;;
68250;SDS011;55066;51.560;4.642;2023-01-26T03:31:17;73.00;;;16.27;;
68250;SDS011;55066;51.560;4.642;2023-01-26T03:33:46;72.00;;;16.75;;
68250;SDS011;55066;51.560;4.642;2023-01-26T03:36:15;72.88;;;16.98;;
68250;SDS011;55066;51.560;4.642;2023-01-26T03:38:40;80.20;;;17.10;;
68250;SDS011;55066;51.560;4.642;2023-01-26T03:41:06;75.78;;;16.45;;
68250;SDS011;55066;51.560;4.642;2023-01-26T03:43:50;68.88;;;15.95;;
68250;SDS011;55066;51.560;4.642;2023-01-26T03:46:34;64.20;;;14.03;;
68250;SDS011;55066;51.560;4.642;2023-01-26T03:49:18;62.78;;;14.77;;
68250;SDS011;55066;51.560;4.642;2023-01-26T03:52:02;73.60;;;15.38;;
68250;SDS011;55066;51.560;4.642;2023-01-26T03:54:47;59.90;;;14.82;;
68250;SDS011;55066;51.560;4.642;2023-01-26T03:57:31;64.88;;;14.70;;
68250;SDS011;55066;51.560;4.642;2023-01-26T03:59:57;67.53;;;15.10;;
68250;SDS011;55066;51.560;4.642;2023-01-26T04:02:25;54.60;;;13.23;;
68250;SDS011;55066;51.560;4.642;2023-01-26T04:05:09;62.90;;;14.40;;
68250;SDS011;55066;51.560;4.642;2023-01-26T04:08:00;60.45;;;14.05;;
68250;SDS011;55066;51.560;4.642;2023-01-26T04:10:47;67.03;;;14.50;;
68250;SDS011;55066;51.560;4.642;2023-01-26T04:13:17;53.23;;;12.77;;
68250;SDS011;55066;51.560;4.642;2023-01-26T04:16:06;54.92;;;13.75;;
68250;SDS011;55066;51.560;4.642;2023-01-26T04:18:55;50.28;;;13.80;;
68250;SDS011;55066;51.560;4.642;2023-01-26T04:21:39;44.30;;;12.32;;
68250;SDS011;55066;51.560;4.642;2023-01-26T04:24:11;52.03;;;13.00;;
68250;SDS011;55066;51.560;4.642;2023-01-26T04:26:41;57.47;;;13.57;;
68250;SDS011;55066;51.560;4.642;2023-01-26T04:29:12;51.25;;;13.70;;
68250;SDS011;55066;51.560;4.642;2023-01-26T04:31:40;61.83;;;14.32;;
68250;SDS011;55066;51.560;4.642;2023-01-26T04:34:11;57.08;;;14.23;;
68250;SDS011;55066;51.560;4.642;2023-01-26T04:36:39;52.03;;;13.00;;
68250;SDS011;55066;51.560;4.642;2023-01-26T04:39:05;49.90;;;12.37;;
68250;SDS011;55066;51.560;4.642;2023-01-26T04:41:32;42.50;;;11.43;;
68250;SDS011;55066;51.560;4.642;2023-01-26T04:44:05;53.88;;;13.35;;
68250;SDS011;55066;51.560;4.642;2023-01-26T04:46:30;55.37;;;13.60;;
68250;SDS011;55066;51.560;4.642;2023-01-26T04:49:00;48.55;;;13.05;;
68250;SDS011;55066;51.560;4.642;2023-01-26T04:51:27;55.65;;;13.50;;
68250;SDS011;55066;51.560;4.642;2023-01-26T04:53:55;54.75;;;13.05;;
68250;SDS011;55066;51.560;4.642;2023-01-26T04:56:25;52.73;;;13.27;;
68250;SDS011;55066;51.560;4.642;2023-01-26T04:58:53;45.17;;;12.52;;
68250;SDS011;55066;51.560;4.642;2023-01-26T05:01:22;47.50;;;12.40;;
68250;SDS011;55066;51.560;4.642;2023-01-26T05:03:48;51.38;;;12.77;;
68250;SDS011;55066;51.560;4.642;2023-01-26T05:06:14;45.85;;;12.38;;
68250;SDS011;55066;51.560;4.642;2023-01-26T05:08:44;49.17;;;12.30;;
68250;SDS011;55066;51.560;4.642;2023-01-26T05:11:09;50.03;;;12.00;;
68250;SDS011;55066;51.560;4.642;2023-01-26T05:13:58;46.70;;;12.52;;
68250;SDS011;55066;51.560;4.642;2023-01-26T05:16:33;49.35;;;12.73;;
68250;SDS011;55066;51.560;4.642;2023-01-26T05:19:04;45.80;;;11.83;;
68250;SDS011;55066;51.560;4.642;2023-01-26T05:21:43;44.42;;;11.90;;
68250;SDS011;55066;51.560;4.642;2023-01-26T05:24:10;45.22;;;11.73;;
68250;SDS011;55066;51.560;4.642;2023-01-26T05:26:54;51.33;;;11.75;;
68250;SDS011;55066;51.560;4.642;2023-01-26T05:29:40;46.08;;;11.65;;
68250;SDS011;55066;51.560;4.642;2023-01-26T05:32:05;47.17;;;11.47;;
68250;SDS011;55066;51.560;4.642;2023-01-26T05:34:31;45.83;;;11.88;;
68250;SDS011;55066;51.560;4.642;2023-01-26T05:36:57;41.87;;;11.33;;
68250;SDS011;55066;51.560;4.642;2023-01-26T05:39:23;49.67;;;12.23;;
68250;SDS011;55066;51.560;4.642;2023-01-26T05:41:49;47.83;;;12.17;;
68250;SDS011;55066;51.560;4.642;2023-01-26T05:44:33;45.45;;;11.70;;
68250;SDS011;55066;51.560;4.642;2023-01-26T05:47:08;39.72;;;10.85;;
68250;SDS011;55066;51.560;4.642;2023-01-26T05:49:33;50.97;;;12.53;;
68250;SDS011;55066;51.560;4.642;2023-01-26T05:51:59;51.95;;;12.48;;
68250;SDS011;55066;51.560;4.642;2023-01-26T05:54:26;44.70;;;11.60;;
68250;SDS011;55066;51.560;4.642;2023-01-26T05:56:51;36.53;;;10.35;;
68250;SDS011;55066;51.560;4.642;2023-01-26T05:59:17;48.58;;;11.85;;
68250;SDS011;55066;51.560;4.642;2023-01-26T06:01:43;43.70;;;11.40;;
68250;SDS011;55066;51.560;4.642;2023-01-26T06:04:10;42.83;;;11.98;;
68250;SDS011;55066;51.560;4.642;2023-01-26T06:06:43;40.97;;;10.77;;
68250;SDS011;55066;51.560;4.642;2023-01-26T06:09:19;43.67;;;11.55;;
68250;SDS011;55066;51.560;4.642;2023-01-26T06:12:14;43.63;;;11.77;;
68250;SDS011;55066;51.560;4.642;2023-01-26T06:14:57;36.03;;;10.80;;
68250;SDS011;55066;51.560;4.642;2023-01-26T06:17:37;42.08;;;11.77;;
68250;SDS011;55066;51.560;4.642;2023-01-26T06:20:06;42.08;;;11.43;;
68250;SDS011;55066;51.560;4.642;2023-01-26T06:22:33;41.63;;;11.43;;
68250;SDS011;55066;51.560;4.642;2023-01-26T06:25:00;42.33;;;11.47;;
68250;SDS011;55066;51.560;4.642;2023-01-26T06:27:47;47.63;;;11.82;;
68250;SDS011;55066;51.560;4.642;2023-01-26T06:30:22;45.03;;;11.48;;
68250;SDS011;55066;51.560;4.642;2023-01-26T06:32:48;43.73;;;11.80;;
68250;SDS011;55066;51.560;4.642;2023-01-26T06:35:15;44.45;;;11.73;;
68250;SDS011;55066;51.560;4.642;2023-01-26T06:37:41;44.50;;;10.85;;
68250;SDS011;55066;51.560;4.642;2023-01-26T06:40:07;42.13;;;10.77;;
68250;SDS011;55066;51.560;4.642;2023-01-26T06:42:33;43.70;;;11.93;;
68250;SDS011;55066;51.560;4.642;2023-01-26T06:45:00;47.87;;;11.50;;
68250;SDS011;55066;51.560;4.642;2023-01-26T06:47:28;45.42;;;12.85;;
68250;SDS011;55066;51.560;4.642;2023-01-26T06:49:58;49.47;;;12.20;;
68250;SDS011;55066;51.560;4.642;2023-01-26T06:52:30;48.03;;;12.27;;
68250;SDS011;55066;51.560;4.642;2023-01-26T06:55:03;43.25;;;11.80;;
68250;SDS011;55066;51.560;4.642;2023-01-26T06:57:44;43.90;;;12.33;;
68250;SDS011;55066;51.560;4.642;2023-01-26T07:00:32;40.92;;;10.85;;
68250;SDS011;55066;51.560;4.642;2023-01-26T07:03:28;43.22;;;11.88;;
68250;SDS011;55066;51.560;4.642;2023-01-26T07:05:56;44.25;;;11.65;;
68250;SDS011;55066;51.560;4.642;2023-01-26T07:08:24;41.35;;;11.85;;
68250;SDS011;55066;51.560;4.642;2023-01-26T07:10:52;44.57;;;11.87;;
68250;SDS011;55066;51.560;4.642;2023-01-26T07:13:17;44.13;;;13.18;;
68250;SDS011;55066;51.560;4.642;2023-01-26T07:15:46;44.40;;;11.93;;
68250;SDS011;55066;51.560;4.642;2023-01-26T07:18:12;49.47;;;11.73;;
68250;SDS011;55066;51.560;4.642;2023-01-26T07:20:45;47.97;;;12.43;;
68250;SDS011;55066;51.560;4.642;2023-01-26T07:23:11;43.97;;;11.93;;
68250;SDS011;55066;51.560;4.642;2023-01-26T07:25:36;52.17;;;11.60;;
68250;SDS011;55066;51.560;4.642;2023-01-26T07:28:01;42.33;;;12.10;;
68250;SDS011;55066;51.560;4.642;2023-01-26T07:30:40;48.28;;;11.73;;
68250;SDS011;55066;51.560;4.642;2023-01-26T07:33:06;43.72;;;12.13;;
68250;SDS011;55066;51.560;4.642;2023-01-26T07:35:32;48.83;;;11.70;;
68250;SDS011;55066;51.560;4.642;2023-01-26T07:37:57;47.70;;;12.17;;
68250;SDS011;55066;51.560;4.642;2023-01-26T07:40:23;47.35;;;12.63;;
68250;SDS011;55066;51.560;4.642;2023-01-26T07:42:49;52.70;;;12.87;;
68250;SDS011;55066;51.560;4.642;2023-01-26T07:45:38;49.10;;;11.95;;
68250;SDS011;55066;51.560;4.642;2023-01-26T07:48:09;51.03;;;13.18;;
68250;SDS011;55066;51.560;4.642;2023-01-26T07:50:36;65.28;;;13.35;;
68250;SDS011;55066;51.560;4.642;2023-01-26T07:53:02;63.83;;;13.80;;
68250;SDS011;55066;51.560;4.642;2023-01-26T07:55:28;55.42;;;14.13;;
68250;SDS011;55066;51.560;4.642;2023-01-26T07:57:53;58.03;;;13.40;;
68250;SDS011;55066;51.560;4.642;2023-01-26T08:00:19;61.38;;;14.55;;
68250;SDS011;55066;51.560;4.642;2023-01-26T08:02:49;70.70;;;15.10;;
68250;SDS011;55066;51.560;4.642;2023-01-26T08:05:22;74.85;;;14.93;;
68250;SDS011;55066;51.560;4.642;2023-01-26T08:07:50;78.28;;;16.10;;
68250;SDS011;55066;51.560;4.642;2023-01-26T08:10:16;70.97;;;16.17;;
68250;SDS011;55066;51.560;4.642;2023-01-26T08:12:42;72.20;;;15.70;;
68250;SDS011;55066;51.560;4.642;2023-01-26T08:15:08;81.35;;;17.02;;
68250;SDS011;55066;51.560;4.642;2023-01-26T08:17:35;81.53;;;17.17;;
68250;SDS011;55066;51.560;4.642;2023-01-26T08:20:02;86.95;;;15.93;;
68250;SDS011;55066;51.560;4.642;2023-01-26T08:22:30;71.97;;;15.85;;
68250;SDS011;55066;51.560;4.642;2023-01-26T08:25:02;70.18;;;16.85;;
68250;SDS011;55066;51.560;4.642;2023-01-26T08:27:28;78.95;;;16.60;;
68250;SDS011;55066;51.560;4.642;2023-01-26T08:29:54;96.63;;;17.90;;
68250;SDS011;55066;51.560;4.642;2023-01-26T08:32:20;80.32;;;16.85;;
68250;SDS011;55066;51.560;4.642;2023-01-26T08:34:47;89.63;;;17.63;;
68250;SDS011;55066;51.560;4.642;2023-01-26T08:37:13;95.28;;;17.95;;
68250;SDS011;55066;51.560;4.642;2023-01-26T08:39:39;99.00;;;18.45;;
68250;SDS011;55066;51.560;4.642;2023-01-26T08:42:06;92.33;;;17.60;;
68250;SDS011;55066;51.560;4.642;2023-01-26T08:44:31;94.40;;;18.33;;
68250;SDS011;55066;51.560;4.642;2023-01-26T08:47:02;95.82;;;17.60;;
68250;SDS011;55066;51.560;4.642;2023-01-26T08:49:28;90.03;;;17.27;;
68250;SDS011;55066;51.560;4.642;2023-01-26T08:51:56;83.45;;;17.08;;
68250;SDS011;55066;51.560;4.642;2023-01-26T08:54:24;83.50;;;17.27;;
68250;SDS011;55066;51.560;4.642;2023-01-26T08:56:54;73.17;;;13.00;;
68250;SDS011;55066;51.560;4.642;2023-01-26T08:59:26;85.60;;;16.75;;
68250;SDS011;55066;51.560;4.642;2023-01-26T09:01:52;76.20;;;15.70;;
68250;SDS011;55066;51.560;4.642;2023-01-26T09:04:19;80.72;;;14.55;;
68250;SDS011;55066;51.560;4.642;2023-01-26T09:06:45;75.73;;;15.87;;
68250;SDS011;55066;51.560;4.642;2023-01-26T09:09:11;72.00;;;15.10;;
68250;SDS011;55066;51.560;4.642;2023-01-26T09:11:39;91.55;;;16.77;;
68250;SDS011;55066;51.560;4.642;2023-01-26T09:14:04;84.15;;;16.55;;
68250;SDS011;55066;51.560;4.642;2023-01-26T09:16:34;80.70;;;14.90;;
68250;SDS011;55066;51.560;4.642;2023-01-26T09:19:05;84.28;;;15.15;;
68250;SDS011;55066;51.560;4.642;2023-01-26T09:21:31;88.85;;;14.55;;
68250;SDS011;55066;51.560;4.642;2023-01-26T09:23:57;88.25;;;15.77;;
68250;SDS011;55066;51.560;4.642;2023-01-26T09:26:23;101.47;;;14.80;;
68250;SDS011;55066;51.560;4.642;2023-01-26T09:28:50;68.13;;;11.27;;
68250;SDS011;55066;51.560;4.642;2023-01-26T09:31:16;85.97;;;15.53;;
68250;SDS011;55066;51.560;4.642;2023-01-26T09:33:42;79.07;;;13.07;;
68250;SDS011;55066;51.560;4.642;2023-01-26T09:36:08;93.60;;;13.20;;
68250;SDS011;55066;51.560;4.642;2023-01-26T09:38:35;83.03;;;13.13;;
68250;SDS011;55066;51.560;4.642;2023-01-26T09:41:17;75.20;;;12.65;;
68250;SDS011;55066;51.560;4.642;2023-01-26T09:43:57;54.90;;;9.97;;
68250;SDS011;55066;51.560;4.642;2023-01-26T09:49:16;55.28;;;8.18;;
68250;SDS011;55066;51.560;4.642;2023-01-26T09:51:49;52.42;;;7.25;;
68250;SDS011;55066;51.560;4.642;2023-01-26T09:54:39;39.10;;;6.20;;
68250;SDS011;55066;51.560;4.642;2023-01-26T09:57:12;28.20;;;4.97;;
68250;SDS011;55066;51.560;4.642;2023-01-26T09:59:43;39.85;;;5.60;;
68250;SDS011;55066;51.560;4.642;2023-01-26T10:02:40;32.05;;;5.20;;
68250;SDS011;55066;51.560;4.642;2023-01-26T10:05:27;34.90;;;4.03;;
68250;SDS011;55066;51.560;4.642;2023-01-26T10:08:35;26.50;;;3.58;;
68250;SDS011;55066;51.560;4.642;2023-01-26T10:11:02;30.17;;;3.80;;
68250;SDS011;55066;51.560;4.642;2023-01-26T10:13:56;32.95;;;3.95;;
68250;SDS011;55066;51.560;4.642;2023-01-26T10:16:28;32.10;;;4.20;;
68250;SDS011;55066;51.560;4.642;2023-01-26T10:18:58;37.47;;;4.70;;
68250;SDS011;55066;51.560;4.642;2023-01-26T10:21:30;31.38;;;3.55;;
68250;SDS011;55066;51.560;4.642;2023-01-26T10:24:01;40.25;;;3.72;;
68250;SDS011;55066;51.560;4.642;2023-01-26T10:26:31;19.85;;;3.20;;
68250;SDS011;55066;51.560;4.642;2023-01-26T10:28:58;31.90;;;3.75;;
68250;SDS011;55066;51.560;4.642;2023-01-26T10:31:25;28.30;;;3.30;;
68250;SDS011;55066;51.560;4.642;2023-01-26T10:34:08;27.20;;;3.20;;
68250;SDS011;55066;51.560;4.642;2023-01-26T10:36:38;35.00;;;3.30;;
68250;SDS011;55066;51.560;4.642;2023-01-26T10:39:05;19.88;;;2.95;;
68250;SDS011;55066;51.560;4.642;2023-01-26T10:41:34;31.27;;;3.63;;
68250;SDS011;55066;51.560;4.642;2023-01-26T10:44:01;22.43;;;3.43;;
68250;SDS011;55066;51.560;4.642;2023-01-26T10:48:58;24.02;;;3.15;;
68250;SDS011;55066;51.560;4.642;2023-01-26T10:51:39;28.88;;;3.47;;
68250;SDS011;55066;51.560;4.642;2023-01-26T10:54:18;24.13;;;3.70;;
68250;SDS011;55066;51.560;4.642;2023-01-26T10:57:01;15.57;;;2.30;;
68250;SDS011;55066;51.560;4.642;2023-01-26T10:59:33;18.13;;;3.33;;
68250;SDS011;55066;51.560;4.642;2023-01-26T11:04:37;28.60;;;3.47;;
68250;SDS011;55066;51.560;4.642;2023-01-26T11:07:14;22.17;;;2.20;;
68250;SDS011;55066;51.560;4.642;2023-01-26T11:09:44;15.23;;;2.03;;
68250;SDS011;55066;51.560;4.642;2023-01-26T11:12:16;25.13;;;2.70;;
68250;SDS011;55066;51.560;4.642;2023-01-26T11:14:57;17.90;;;2.80;;
68250;SDS011;55066;51.560;4.642;2023-01-26T11:17:25;15.88;;;2.65;;
68250;SDS011;55066;51.560;4.642;2023-01-26T11:25:28;17.35;;;2.90;;
68250;SDS011;55066;51.560;4.642;2023-01-26T11:36:34;25.17;;;2.70;;
68250;SDS011;55066;51.560;4.642;2023-01-26T11:47:30;25.27;;;2.92;;
68250;SDS011;55066;51.560;4.642;2023-01-26T11:50:23;19.83;;;2.33;;
68250;SDS011;55066;51.560;4.642;2023-01-26T11:58:38;16.75;;;1.63;;
68250;SDS011;55066;51.560;4.642;2023-01-26T12:01:39;20.08;;;2.97;;
68250;SDS011;55066;51.560;4.642;2023-01-26T12:04:10;17.37;;;2.83;;
68250;SDS011;55066;51.560;4.642;2023-01-26T12:06:42;13.35;;;2.22;;
68250;SDS011;55066;51.560;4.642;2023-01-26T12:09:20;24.13;;;2.42;;
68250;SDS011;55066;51.560;4.642;2023-01-26T12:14:21;18.63;;;2.53;;
68250;SDS011;55066;51.560;4.642;2023-01-26T12:16:54;20.17;;;2.20;;
68250;SDS011;55066;51.560;4.642;2023-01-26T12:19:37;18.75;;;2.40;;
68250;SDS011;55066;51.560;4.642;2023-01-26T12:22:10;12.07;;;2.10;;
68250;SDS011;55066;51.560;4.642;2023-01-26T12:24:39;22.10;;;2.30;;
68250;SDS011;55066;51.560;4.642;2023-01-26T12:27:17;13.30;;;2.20;;
68250;SDS011;55066;51.560;4.642;2023-01-26T12:30:03;26.57;;;2.67;;
68250;SDS011;55066;51.560;4.642;2023-01-26T12:32:50;17.33;;;2.30;;
68250;SDS011;55066;51.560;4.642;2023-01-26T12:35:24;18.60;;;2.55;;
68250;SDS011;55066;51.560;4.642;2023-01-26T12:39:09;15.75;;;2.22;;
68250;SDS011;55066;51.560;4.642;2023-01-26T12:41:09;15.40;;;1.70;;
68250;SDS011;55066;51.560;4.642;2023-01-26T12:43:54;17.33;;;2.10;;
68250;SDS011;55066;51.560;4.642;2023-01-26T12:46:30;12.93;;;1.65;;
68250;SDS011;55066;51.560;4.642;2023-01-26T12:49:13;19.27;;;2.45;;
68250;SDS011;55066;51.560;4.642;2023-01-26T12:51:47;16.30;;;2.70;;
68250;SDS011;55066;51.560;4.642;2023-01-26T12:54:40;21.05;;;2.80;;
68250;SDS011;55066;51.560;4.642;2023-01-26T12:57:15;10.07;;;1.73;;
68250;SDS011;55066;51.560;4.642;2023-01-26T12:59:48;18.35;;;2.47;;
68250;SDS011;55066;51.560;4.642;2023-01-26T13:04:42;16.52;;;1.88;;
68250;SDS011;55066;51.560;4.642;2023-01-26T13:15:24;11.05;;;1.73;;
68250;SDS011;55066;51.560;4.642;2023-01-26T13:17:56;9.45;;;1.33;;
68250;SDS011;55066;51.560;4.642;2023-01-26T13:20:40;23.70;;;2.90;;
68250;SDS011;55066;51.560;4.642;2023-01-26T13:26:16;13.93;;;2.00;;
68250;SDS011;55066;51.560;4.642;2023-01-26T13:29:25;18.67;;;1.92;;
68250;SDS011;55066;51.560;4.642;2023-01-26T13:34:48;15.23;;;1.67;;
68250;SDS011;55066;51.560;4.642;2023-01-26T13:37:35;12.67;;;1.63;;
68250;SDS011;55066;51.560;4.642;2023-01-26T13:40:21;18.60;;;1.75;;
68250;SDS011;55066;51.560;4.642;2023-01-26T13:45:59;8.93;;;1.70;;
68250;SDS011;55066;51.560;4.642;2023-01-26T13:48:47;13.60;;;1.67;;
68250;SDS011;55066;51.560;4.642;2023-01-26T13:51:28;12.50;;;1.53;;
68250;SDS011;55066;51.560;4.642;2023-01-26T13:54:09;8.13;;;1.58;;
68250;SDS011;55066;51.560;4.642;2023-01-26T13:56:42;8.43;;;1.65;;
68250;SDS011;55066;51.560;4.642;2023-01-26T13:59:23;12.73;;;1.90;;
68250;SDS011;55066;51.560;4.642;2023-01-26T14:01:53;15.20;;;1.90;;
68250;SDS011;55066;51.560;4.642;2023-01-26T14:04:25;17.80;;;2.20;;
68250;SDS011;55066;51.560;4.642;2023-01-26T14:09:49;8.95;;;1.88;;
68250;SDS011;55066;51.560;4.642;2023-01-26T14:12:17;15.85;;;1.60;;
68250;SDS011;55066;51.560;4.642;2023-01-26T14:14:57;10.75;;;1.40;;
68250;SDS011;55066;51.560;4.642;2023-01-26T14:17:27;12.27;;;1.37;;
68250;SDS011;55066;51.560;4.642;2023-01-26T14:19:57;11.65;;;1.52;;
68250;SDS011;55066;51.560;4.642;2023-01-26T14:22:25;3.60;;;0.80;;
68250;SDS011;55066;51.560;4.642;2023-01-26T14:24:52;9.35;;;1.20;;
68250;SDS011;55066;51.560;4.642;2023-01-26T14:27:21;7.95;;;1.17;;
68250;SDS011;55066;51.560;4.642;2023-01-26T14:30:02;6.27;;;1.30;;
68250;SDS011;55066;51.560;4.642;2023-01-26T14:32:45;8.48;;;0.85;;
68250;SDS011;55066;51.560;4.642;2023-01-26T14:35:15;4.05;;;0.90;;
68250;SDS011;55066;51.560;4.642;2023-01-26T14:37:43;6.88;;;0.73;;
68250;SDS011;55066;51.560;4.642;2023-01-26T14:40:23;6.82;;;1.17;;
68250;SDS011;55066;51.560;4.642;2023-01-26T14:42:49;6.93;;;1.37;;
68250;SDS011;55066;51.560;4.642;2023-01-26T14:45:23;4.60;;;1.00;;
68250;SDS011;55066;51.560;4.642;2023-01-26T14:47:55;7.65;;;1.00;;
68250;SDS011;55066;51.560;4.642;2023-01-26T14:50:27;5.43;;;0.88;;
68250;SDS011;55066;51.560;4.642;2023-01-26T14:52:56;7.93;;;1.02;;
68250;SDS011;55066;51.560;4.642;2023-01-26T14:57:54;5.15;;;0.90;;
68250;SDS011;55066;51.560;4.642;2023-01-26T15:02:52;9.68;;;1.20;;
68250;SDS011;55066;51.560;4.642;2023-01-26T15:05:20;11.00;;;1.30;;
68250;SDS011;55066;51.560;4.642;2023-01-26T15:08:03;9.07;;;1.27;;
68250;SDS011;55066;51.560;4.642;2023-01-26T15:10:51;7.50;;;1.20;;
68250;SDS011;55066;51.560;4.642;2023-01-26T15:13:19;9.02;;;1.10;;
68250;SDS011;55066;51.560;4.642;2023-01-26T15:16:00;7.60;;;1.20;;
68250;SDS011;55066;51.560;4.642;2023-01-26T15:18:33;7.90;;;1.05;;
68250;SDS011;55066;51.560;4.642;2023-01-26T15:20:59;8.03;;;1.20;;
68250;SDS011;55066;51.560;4.642;2023-01-26T15:23:34;9.85;;;1.13;;
68250;SDS011;55066;51.560;4.642;2023-01-26T15:26:08;6.00;;;1.10;;
68250;SDS011;55066;51.560;4.642;2023-01-26T15:28:59;18.33;;;1.90;;
68250;SDS011;55066;51.560;4.642;2023-01-26T15:33:55;8.50;;;1.40;;
68250;SDS011;55066;51.560;4.642;2023-01-26T15:36:28;10.07;;;1.45;;
68250;SDS011;55066;51.560;4.642;2023-01-26T15:39:11;12.77;;;1.20;;
68250;SDS011;55066;51.560;4.642;2023-01-26T15:44:45;9.70;;;1.58;;
68250;SDS011;55066;51.560;4.642;2023-01-26T15:47:13;12.93;;;1.90;;
68250;SDS011;55066;51.560;4.642;2023-01-26T15:49:39;7.28;;;1.50;;
68250;SDS011;55066;51.560;4.642;2023-01-26T15:52:13;7.00;;;1.40;;
68250;SDS011;55066;51.560;4.642;2023-01-26T15:54:41;11.13;;;1.70;;
68250;SDS011;55066;51.560;4.642;2023-01-26T15:57:09;11.57;;;1.98;;
68250;SDS011;55066;51.560;4.642;2023-01-26T15:59:35;9.33;;;1.40;;
68250;SDS011;55066;51.560;4.642;2023-01-26T16:02:15;5.88;;;1.30;;
68250;SDS011;55066;51.560;4.642;2023-01-26T16:04:43;6.90;;;1.27;;
68250;SDS011;55066;51.560;4.642;2023-01-26T16:07:10;6.07;;;1.40;;
68250;SDS011;55066;51.560;4.642;2023-01-26T16:09:38;6.70;;;1.17;;
68250;SDS011;55066;51.560;4.642;2023-01-26T16:12:04;9.43;;;1.50;;
68250;SDS011;55066;51.560;4.642;2023-01-26T16:14:37;12.65;;;1.60;;
68250;SDS011;55066;51.560;4.642;2023-01-26T16:17:08;5.68;;;1.45;;
68250;SDS011;55066;51.560;4.642;2023-01-26T16:19:42;7.60;;;1.30;;